createdAt,value
2023-04-04T00:01:12.789Z,97511.00
2023-04-04T00:03:39.681Z,97509.00
2023-04-04T00:06:07.485Z,97511.00
2023-04-04T00:08:34.226Z,97515.00
2023-04-04T00:11:01.241Z,97509.00
2023-04-04T00:13:28.050Z,97512.00
2023-04-04T00:15:54.929Z,97501.00
2023-04-04T00:18:21.779Z,97504.00
2023-04-04T00:20:48.476Z,97501.00
2023-04-04T00:23:15.263Z,97499.00
2023-04-04T00:25:41.971Z,97500.00
2023-04-04T00:28:08.740Z,97493.00
2023-04-04T00:30:35.534Z,97495.00
2023-04-04T00:33:02.336Z,97489.00
2023-04-04T00:35:29.504Z,97498.00
2023-04-04T00:37:56.271Z,97501.00
2023-04-04T00:40:22.972Z,97496.00
2023-04-04T00:42:49.854Z,97498.00
2023-04-04T00:45:16.974Z,97497.00
2023-04-04T00:47:44.360Z,97491.00
2023-04-04T00:50:11.253Z,97493.00
2023-04-04T00:52:38.022Z,97494.00
2023-04-04T00:55:05.183Z,97493.00
2023-04-04T00:57:33.390Z,97499.00
2023-04-04T01:00:04.235Z,97500.00
2023-04-04T01:03:11.276Z,97484.00
2023-04-04T01:06:08.410Z,97487.00
2023-04-04T01:12:07.442Z,97490.00
2023-04-04T01:14:37.865Z,97487.00
2023-04-04T01:17:13.696Z,97490.00
2023-04-04T01:20:14.410Z,97489.00
2023-04-04T01:22:53.801Z,97484.00
2023-04-04T01:25:38.684Z,97487.00
2023-04-04T01:28:06.737Z,97493.00
2023-04-04T01:30:36.455Z,97481.00
2023-04-04T01:33:10.921Z,97488.00
2023-04-04T01:36:21.599Z,97481.00
2023-04-04T01:39:03.075Z,97484.00
2023-04-04T01:41:33.342Z,97477.00
2023-04-04T01:44:00.651Z,97479.00
2023-04-04T01:46:27.631Z,97481.00
2023-04-04T01:48:54.375Z,97476.00
2023-04-04T01:51:21.687Z,97467.00
2023-04-04T01:53:48.374Z,97469.00
2023-04-04T01:56:15.050Z,97473.00
2023-04-04T01:58:41.869Z,97472.00
2023-04-04T02:01:09.700Z,97479.00
2023-04-04T02:03:36.618Z,97465.00
2023-04-04T02:06:03.423Z,97470.00
2023-04-04T02:08:30.137Z,97473.00
2023-04-04T02:11:00.562Z,97472.00
2023-04-04T02:13:27.414Z,97473.00
2023-04-04T02:15:54.628Z,97479.00
2023-04-04T02:18:21.430Z,97474.00
2023-04-04T02:20:55.538Z,97470.00
2023-04-04T02:23:22.233Z,97471.00
2023-04-04T02:25:50.925Z,97469.00
2023-04-04T02:28:17.728Z,97478.00
2023-04-04T02:30:44.465Z,97472.00
2023-04-04T02:33:11.207Z,97475.00
2023-04-04T02:35:37.956Z,97477.00
2023-04-04T02:38:04.699Z,97473.00
2023-04-04T02:40:31.374Z,97471.00
2023-04-04T02:42:58.051Z,97459.00
2023-04-04T02:45:25.517Z,97462.00
2023-04-04T02:47:52.812Z,97470.00
2023-04-04T02:50:19.616Z,97466.00
2023-04-04T02:52:46.292Z,97459.00
2023-04-04T02:55:13.021Z,97470.00
2023-04-04T02:57:40.316Z,97463.00
2023-04-04T03:00:07.816Z,97462.00
2023-04-04T03:02:34.752Z,97456.00
2023-04-04T03:05:01.634Z,97461.00
2023-04-04T03:07:28.326Z,97468.00
2023-04-04T03:09:55.037Z,97454.00
2023-04-04T03:12:21.920Z,97462.00
2023-04-04T03:14:48.716Z,97471.00
2023-04-04T03:17:15.523Z,97458.00
2023-04-04T03:19:42.241Z,97460.00
2023-04-04T03:22:08.963Z,97453.00
2023-04-04T03:24:37.200Z,97462.00
2023-04-04T03:27:04.289Z,97457.00
2023-04-04T03:29:31.153Z,97452.00
2023-04-04T03:31:57.879Z,97452.00
2023-04-04T03:34:24.814Z,97460.00
2023-04-04T03:36:53.505Z,97452.00
2023-04-04T03:39:20.274Z,97450.00
2023-04-04T03:41:47.713Z,97449.00
2023-04-04T03:44:15.691Z,97443.00
2023-04-04T03:46:42.366Z,97445.00
2023-04-04T03:49:09.082Z,97447.00
2023-04-04T03:51:35.746Z,97458.00
2023-04-04T03:54:02.451Z,97452.00
2023-04-04T03:56:31.242Z,97454.00
2023-04-04T03:58:58.411Z,97447.00
2023-04-04T04:01:25.102Z,97453.00
2023-04-04T04:03:51.861Z,97457.00
2023-04-04T04:06:18.587Z,97454.00
2023-04-04T04:08:45.549Z,97444.00
2023-04-04T04:11:12.343Z,97453.00
2023-04-04T04:13:40.070Z,97454.00
2023-04-04T04:16:06.974Z,97460.00
2023-04-04T04:18:34.076Z,97458.00
2023-04-04T04:21:02.699Z,97451.00
2023-04-04T04:23:32.553Z,97462.00
2023-04-04T04:25:59.297Z,97461.00
2023-04-04T04:28:33.892Z,97462.00
2023-04-04T04:31:08.059Z,97458.00
2023-04-04T04:33:35.341Z,97460.00
2023-04-04T04:36:03.696Z,97462.00
2023-04-04T04:38:30.752Z,97461.00
2023-04-04T04:40:57.486Z,97472.00
2023-04-04T04:43:24.408Z,97472.00
2023-04-04T04:45:51.215Z,97472.00
2023-04-04T04:48:18.165Z,97480.00
2023-04-04T04:50:45.857Z,97478.00
2023-04-04T04:53:15.532Z,97478.00
2023-04-04T04:55:43.112Z,97475.00
2023-04-04T04:58:10.764Z,97474.00
2023-04-04T05:00:38.325Z,97470.00
2023-04-04T05:03:08.334Z,97474.00
2023-04-04T05:05:35.204Z,97476.00
2023-04-04T05:08:02.810Z,97482.00
2023-04-04T05:10:30.465Z,97486.00
2023-04-04T05:12:57.456Z,97489.00
2023-04-04T05:15:25.838Z,97494.00
2023-04-04T05:17:52.753Z,97490.00
2023-04-04T05:20:19.508Z,97495.00
2023-04-04T05:22:46.800Z,97495.00
2023-04-04T05:25:13.804Z,97489.00
2023-04-04T05:27:40.968Z,97492.00
2023-04-04T05:30:08.257Z,97496.00
2023-04-04T05:32:35.501Z,97499.00
2023-04-04T05:35:02.267Z,97496.00
2023-04-04T05:37:29.026Z,97500.00
2023-04-04T05:39:55.733Z,97499.00
2023-04-04T05:42:22.584Z,97499.00
2023-04-04T05:44:49.289Z,97490.00
2023-04-04T05:47:16.019Z,97498.00
2023-04-04T05:49:42.707Z,97499.00
2023-04-04T05:52:10.672Z,97495.00
2023-04-04T05:54:37.375Z,97482.00
2023-04-04T05:57:04.078Z,97484.00
2023-04-04T05:59:30.974Z,97488.00
2023-04-04T06:01:57.786Z,97485.00
2023-04-04T06:04:24.492Z,97480.00
2023-04-04T06:06:51.930Z,97483.00
2023-04-04T06:09:18.617Z,97487.00
2023-04-04T06:11:45.493Z,97482.00
2023-04-04T06:14:13.914Z,97477.00
2023-04-04T06:16:41.877Z,97469.00
2023-04-04T06:19:08.547Z,97472.00
2023-04-04T06:21:35.332Z,97467.00
2023-04-04T06:24:02.061Z,97473.00
2023-04-04T06:26:28.783Z,97473.00
2023-04-04T06:28:55.888Z,97475.00
2023-04-04T06:31:22.699Z,97478.00
2023-04-04T06:33:49.593Z,97475.00
2023-04-04T06:36:16.309Z,97467.00
2023-04-04T06:38:43.021Z,97473.00
2023-04-04T06:41:09.688Z,97462.00
2023-04-04T06:43:36.402Z,97459.00
2023-04-04T06:46:03.316Z,97460.00
2023-04-04T06:48:30.013Z,97469.00
2023-04-04T06:50:57.090Z,97469.00
2023-04-04T06:53:24.906Z,97466.00
2023-04-04T06:55:53.514Z,97459.00
2023-04-04T06:58:20.499Z,97466.00
2023-04-04T07:00:47.280Z,97466.00
2023-04-04T07:03:14.045Z,97460.00
2023-04-04T07:05:41.260Z,97468.00
2023-04-04T07:08:08.080Z,97462.00
2023-04-04T07:10:34.795Z,97458.00
2023-04-04T07:13:01.695Z,97458.00
2023-04-04T07:15:28.397Z,97452.00
2023-04-04T07:17:55.140Z,97450.00
2023-04-04T07:20:22.072Z,97455.00
2023-04-04T07:22:49.280Z,97455.00
2023-04-04T07:25:16.066Z,97453.00
2023-04-04T07:27:42.824Z,97448.00
2023-04-04T07:30:10.182Z,97449.00
2023-04-04T07:32:38.225Z,97453.00
2023-04-04T07:35:06.880Z,97459.00
2023-04-04T07:37:34.882Z,97465.00
2023-04-04T07:40:01.610Z,97448.00
2023-04-04T07:42:31.021Z,97447.00
2023-04-04T07:44:57.708Z,97450.00
2023-04-04T07:47:24.527Z,97446.00
2023-04-04T07:49:51.429Z,97441.00
2023-04-04T07:52:18.121Z,97449.00
2023-04-04T07:54:44.962Z,97439.00
2023-04-04T07:57:11.894Z,97444.00
2023-04-04T07:59:38.646Z,97447.00
2023-04-04T08:02:05.351Z,97442.00
2023-04-04T08:04:32.124Z,97445.00
2023-04-04T08:06:58.865Z,97441.00
2023-04-04T08:09:25.764Z,97449.00
2023-04-04T08:11:52.806Z,97455.00
2023-04-04T08:14:19.538Z,97445.00
2023-04-04T08:16:46.284Z,97449.00
2023-04-04T08:19:13.041Z,97447.00
2023-04-04T08:21:39.801Z,97457.00
2023-04-04T08:24:06.637Z,97460.00
2023-04-04T08:26:33.405Z,97464.00
2023-04-04T08:29:00.109Z,97458.00
2023-04-04T08:31:26.884Z,97466.00
2023-04-04T08:33:53.654Z,97450.00
2023-04-04T08:36:20.369Z,97455.00
2023-04-04T08:38:47.053Z,97464.00
2023-04-04T08:41:15.603Z,97460.00
2023-04-04T08:43:44.607Z,97458.00
2023-04-04T08:46:12.647Z,97456.00
2023-04-04T08:48:42.013Z,97454.00
2023-04-04T08:51:11.098Z,97441.00
2023-04-04T08:53:38.815Z,97454.00
2023-04-04T08:56:05.626Z,97455.00
2023-04-04T08:58:32.532Z,97465.00
2023-04-04T09:00:59.253Z,97455.00
2023-04-04T09:03:27.649Z,97453.00
2023-04-04T09:05:55.459Z,97451.00
2023-04-04T09:08:24.669Z,97461.00
2023-04-04T09:10:52.343Z,97459.00
2023-04-04T09:13:19.429Z,97465.00
2023-04-04T09:15:52.314Z,97456.00
2023-04-04T09:18:19.173Z,97464.00
2023-04-04T09:20:49.909Z,97459.00
2023-04-04T09:23:21.213Z,97462.00
2023-04-04T09:28:19.675Z,97458.00
2023-04-04T09:30:50.640Z,97466.00
2023-04-04T09:33:18.483Z,97469.00
2023-04-04T09:35:54.640Z,97470.00
2023-04-04T09:38:26.408Z,97466.00
2023-04-04T09:40:54.621Z,97454.00
2023-04-04T09:43:23.147Z,97470.00
2023-04-04T09:45:50.338Z,97461.00
2023-04-04T09:48:28.854Z,97462.00
2023-04-04T09:50:58.089Z,97469.00
2023-04-04T09:53:25.366Z,97470.00
2023-04-04T09:55:54.157Z,97456.00
2023-04-04T09:58:28.414Z,97471.00
2023-04-04T10:01:09.723Z,97466.00
2023-04-04T10:03:39.896Z,97482.00
2023-04-04T10:06:07.948Z,97469.00
2023-04-04T10:08:35.450Z,97470.00
2023-04-04T10:11:10.464Z,97478.00
2023-04-04T10:13:42.294Z,97469.00
2023-04-04T10:16:09.467Z,97458.00
2023-04-04T10:18:37.104Z,97468.00
2023-04-04T10:23:38.906Z,97464.00
2023-04-04T10:26:06.065Z,97471.00
2023-04-04T10:28:34.402Z,97470.00
2023-04-04T10:31:22.316Z,97471.00
2023-04-04T10:34:26.790Z,97461.00
2023-04-04T10:37:13.594Z,97464.00
2023-04-04T10:39:49.431Z,97453.00
2023-04-04T10:42:23.989Z,97459.00
2023-04-04T10:45:09.030Z,97458.00
2023-04-04T10:47:47.809Z,97457.00
2023-04-04T10:50:21.412Z,97456.00
2023-04-04T10:53:23.875Z,97457.00
2023-04-04T10:56:03.163Z,97450.00
2023-04-04T10:58:58.181Z,97450.00
2023-04-04T11:02:15.425Z,97445.00
2023-04-04T11:08:25.383Z,97437.00
2023-04-04T11:11:12.774Z,97434.00
2023-04-04T11:14:26.579Z,97424.00
2023-04-04T11:16:53.815Z,97424.00
2023-04-04T11:19:21.566Z,97415.00
2023-04-04T11:21:54.755Z,97422.00
2023-04-04T11:24:22.433Z,97416.00
2023-04-04T11:26:53.455Z,97412.00
2023-04-04T11:29:22.318Z,97427.00
2023-04-04T11:31:50.529Z,97407.00
2023-04-04T11:34:30.671Z,97402.00
2023-04-04T11:36:58.178Z,97410.00
2023-04-04T11:39:29.379Z,97418.00
2023-04-04T11:41:59.640Z,97415.00
2023-04-04T11:44:30.648Z,97419.00
2023-04-04T11:47:02.368Z,97408.00
2023-04-04T11:49:29.890Z,97413.00
2023-04-04T11:51:57.346Z,97407.00
2023-04-04T11:54:24.720Z,97416.00
2023-04-04T11:56:51.872Z,97407.00
2023-04-04T11:59:19.538Z,97413.00
2023-04-04T12:01:46.831Z,97397.00
2023-04-04T12:04:15.109Z,97390.00
2023-04-04T12:06:42.789Z,97404.00
2023-04-04T12:09:12.311Z,97410.00
2023-04-04T12:11:40.288Z,97412.00
2023-04-04T12:14:14.868Z,97413.00
2023-04-04T12:16:42.667Z,97401.00
2023-04-04T12:19:09.836Z,97405.00
2023-04-04T12:21:36.940Z,97410.00
2023-04-04T12:24:04.048Z,97413.00
2023-04-04T12:26:32.709Z,97411.00
2023-04-04T12:28:59.859Z,97404.00
2023-04-04T12:31:27.279Z,97399.00
2023-04-04T12:33:54.936Z,97406.00
2023-04-04T12:36:25.243Z,97402.00
2023-04-04T12:39:12.195Z,97397.00
2023-04-04T12:41:49.237Z,97399.00
2023-04-04T12:44:25.961Z,97390.00
2023-04-04T12:46:55.993Z,97391.00
2023-04-04T12:49:23.199Z,97381.00
2023-04-04T12:51:50.327Z,97382.00
2023-04-04T12:54:27.592Z,97377.00
2023-04-04T12:56:56.839Z,97377.00
2023-04-04T12:59:24.572Z,97377.00
2023-04-04T13:01:51.768Z,97373.00
2023-04-04T13:04:20.078Z,97377.00
2023-04-04T13:06:48.284Z,97372.00
2023-04-04T13:09:22.778Z,97385.00
2023-04-04T13:11:56.172Z,97381.00
2023-04-04T13:14:23.266Z,97364.00
2023-04-04T13:17:04.708Z,97366.00
2023-04-04T13:19:32.045Z,97365.00
2023-04-04T13:22:00.222Z,97359.00
2023-04-04T13:24:27.344Z,97373.00
2023-04-04T13:26:54.426Z,97359.00
2023-04-04T13:29:21.914Z,97366.00
2023-04-04T13:31:49.026Z,97363.00
2023-04-04T13:34:16.227Z,97356.00
2023-04-04T13:36:44.259Z,97353.00
2023-04-04T13:39:11.418Z,97346.00
2023-04-04T13:41:38.493Z,97346.00
2023-04-04T13:44:05.644Z,97351.00
2023-04-04T13:46:32.945Z,97348.00
2023-04-04T13:49:00.055Z,97353.00
2023-04-04T13:51:27.318Z,97350.00
2023-04-04T13:53:54.430Z,97350.00
2023-04-04T13:56:22.235Z,97347.00
2023-04-04T13:58:50.825Z,97344.00
2023-04-04T14:01:17.970Z,97345.00
2023-04-04T14:03:45.138Z,97350.00
2023-04-04T14:06:12.456Z,97352.00
2023-04-04T14:08:39.796Z,97337.00
2023-04-04T14:11:07.105Z,97349.00
2023-04-04T14:13:34.261Z,97343.00
2023-04-04T14:16:01.482Z,97340.00
2023-04-04T14:18:28.644Z,97337.00
2023-04-04T14:20:55.761Z,97340.00
2023-04-04T14:23:23.895Z,97337.00
2023-04-04T14:25:51.106Z,97329.00
2023-04-04T14:28:18.484Z,97338.00
2023-04-04T14:30:45.718Z,97338.00
2023-04-04T14:33:12.862Z,97332.00
2023-04-04T14:35:40.470Z,97342.00
2023-04-04T14:38:07.739Z,97334.00
2023-04-04T14:40:34.923Z,97336.00
2023-04-04T14:43:02.457Z,97326.00
2023-04-04T14:45:29.639Z,97326.00
2023-04-04T14:47:56.905Z,97339.00
2023-04-04T14:50:24.039Z,97325.00
2023-04-04T14:52:52.846Z,97329.00
2023-04-04T14:55:20.561Z,97329.00
2023-04-04T14:58:01.347Z,97334.00
2023-04-04T15:00:30.325Z,97335.00
2023-04-04T15:02:57.508Z,97348.00
2023-04-04T15:05:24.899Z,97344.00
2023-04-04T15:07:51.982Z,97338.00
2023-04-04T15:10:19.148Z,97330.00
2023-04-04T15:12:46.234Z,97332.00
2023-04-04T15:15:13.414Z,97339.00
2023-04-04T15:17:40.931Z,97335.00
2023-04-04T15:22:36.150Z,97339.00
2023-04-04T15:25:03.646Z,97337.00
2023-04-04T15:27:30.767Z,97343.00
2023-04-04T15:29:57.884Z,97351.00
2023-04-04T15:32:25.077Z,97340.00
2023-04-04T15:34:53.307Z,97342.00
2023-04-04T15:37:20.513Z,97345.00
2023-04-04T15:39:53.382Z,97347.00
2023-04-04T15:42:21.651Z,97348.00
2023-04-04T15:44:48.763Z,97343.00
2023-04-04T15:47:16.282Z,97341.00
2023-04-04T15:49:43.489Z,97347.00
2023-04-04T15:52:10.751Z,97342.00
2023-04-04T15:54:37.885Z,97339.00
2023-04-04T15:57:04.987Z,97345.00
2023-04-04T15:59:32.349Z,97343.00
2023-04-04T16:01:59.839Z,97350.00
2023-04-04T16:04:27.066Z,97349.00
2023-04-04T16:06:54.168Z,97343.00
2023-04-04T16:09:21.397Z,97345.00
2023-04-04T16:11:48.626Z,97344.00
2023-04-04T16:14:15.736Z,97349.00
2023-04-04T16:16:42.935Z,97340.00
2023-04-04T16:19:14.018Z,97330.00
2023-04-04T16:21:41.795Z,97335.00
2023-04-04T16:24:09.108Z,97331.00
2023-04-04T16:26:36.390Z,97338.00
2023-04-04T16:29:03.528Z,97327.00
2023-04-04T16:31:31.297Z,97324.00
2023-04-04T16:33:58.850Z,97330.00
2023-04-04T16:36:26.275Z,97331.00
2023-04-04T16:38:55.010Z,97329.00
2023-04-04T16:41:22.086Z,97332.00
2023-04-04T16:43:52.575Z,97328.00
2023-04-04T16:46:19.795Z,97334.00
2023-04-04T16:48:47.102Z,97331.00
2023-04-04T16:51:14.224Z,97333.00
2023-04-04T16:53:41.335Z,97335.00
2023-04-04T16:56:08.489Z,97329.00
2023-04-04T16:58:35.712Z,97327.00
2023-04-04T17:01:02.843Z,97329.00
2023-04-04T17:03:30.048Z,97340.00
2023-04-04T17:05:59.817Z,97331.00
2023-04-04T17:08:26.991Z,97339.00
2023-04-04T17:10:54.114Z,97338.00
2023-04-04T17:13:21.212Z,97333.00
2023-04-04T17:15:48.283Z,97344.00
2023-04-04T17:18:15.371Z,97334.00
2023-04-04T17:20:43.505Z,97341.00
2023-04-04T17:23:10.924Z,97336.00
2023-04-04T17:25:38.024Z,97337.00
2023-04-04T17:28:05.469Z,97336.00
2023-04-04T17:30:33.025Z,97340.00
2023-04-04T17:33:00.196Z,97335.00
2023-04-04T17:35:27.597Z,97339.00
2023-04-04T17:37:54.753Z,97337.00
2023-04-04T17:40:21.826Z,97337.00
2023-04-04T17:42:49.079Z,97335.00
2023-04-04T17:45:16.179Z,97334.00
2023-04-04T17:47:43.327Z,97332.00
2023-04-04T17:50:10.786Z,97339.00
2023-04-04T17:52:37.900Z,97328.00
2023-04-04T17:55:07.339Z,97339.00
2023-04-04T17:57:34.485Z,97330.00
2023-04-04T18:00:01.669Z,97336.00
2023-04-04T18:02:28.787Z,97332.00
2023-04-04T18:04:56.999Z,97336.00
2023-04-04T18:07:24.192Z,97339.00
2023-04-04T18:09:51.396Z,97338.00
2023-04-04T18:12:18.547Z,97337.00
2023-04-04T18:14:45.673Z,97340.00
2023-04-04T18:17:13.162Z,97347.00
2023-04-04T18:19:41.426Z,97343.00
2023-04-04T18:22:09.345Z,97354.00
2023-04-04T18:24:36.482Z,97346.00
2023-04-04T18:27:03.595Z,97349.00
2023-04-04T18:29:32.551Z,97350.00
2023-04-04T18:32:01.261Z,97354.00
2023-04-04T18:34:28.432Z,97352.00
2023-04-04T18:36:56.336Z,97359.00
2023-04-04T18:39:23.501Z,97353.00
2023-04-04T18:41:51.031Z,97355.00
2023-04-04T18:44:18.109Z,97360.00
2023-04-04T18:46:45.247Z,97361.00
2023-04-04T18:49:12.468Z,97359.00
2023-04-04T18:51:39.584Z,97360.00
2023-04-04T18:54:07.138Z,97363.00
2023-04-04T18:56:34.257Z,97366.00
2023-04-04T18:59:01.852Z,97359.00
2023-04-04T19:01:29.018Z,97366.00
2023-04-04T19:03:56.937Z,97369.00
2023-04-04T19:06:24.824Z,97364.00
2023-04-04T19:08:52.587Z,97377.00
2023-04-04T19:11:20.096Z,97373.00
2023-04-04T19:13:47.278Z,97379.00
2023-04-04T19:16:14.404Z,97374.00
2023-04-04T19:18:43.477Z,97370.00
2023-04-04T19:21:11.484Z,97384.00
2023-04-04T19:23:38.681Z,97379.00
2023-04-04T19:26:06.550Z,97377.00
2023-04-04T19:28:33.633Z,97384.00
2023-04-04T19:31:01.883Z,97384.00
2023-04-04T19:33:29.234Z,97369.00
2023-04-04T19:35:58.968Z,97377.00
2023-04-04T19:38:28.308Z,97377.00
2023-04-04T19:41:02.150Z,97380.00
2023-04-04T19:43:30.040Z,97382.00
2023-04-04T19:45:57.712Z,97388.00
2023-04-04T19:48:43.772Z,97387.00
2023-04-04T19:51:16.852Z,97385.00
2023-04-04T19:53:45.021Z,97391.00
2023-04-04T19:56:12.663Z,97399.00
2023-04-04T19:58:39.944Z,97377.00
2023-04-04T20:01:07.425Z,97386.00
2023-04-04T20:03:43.587Z,97380.00
2023-04-04T20:06:29.712Z,97384.00
2023-04-04T20:09:19.894Z,97389.00
2023-04-04T20:11:46.993Z,97386.00
2023-04-04T20:14:18.866Z,97382.00
2023-04-04T20:16:46.073Z,97389.00
2023-04-04T20:19:13.604Z,97389.00
2023-04-04T20:21:41.063Z,97384.00
2023-04-04T20:24:08.620Z,97379.00
2023-04-04T20:26:39.098Z,97386.00
2023-04-04T20:29:07.155Z,97388.00
2023-04-04T20:31:35.444Z,97383.00
2023-04-04T20:34:02.576Z,97389.00
2023-04-04T20:36:32.989Z,97385.00
2023-04-04T20:39:00.718Z,97395.00
2023-04-04T20:41:28.208Z,97396.00
2023-04-04T20:43:56.476Z,97392.00
2023-04-04T20:46:24.572Z,97402.00
2023-04-04T20:48:54.151Z,97398.00
2023-04-04T20:51:30.837Z,97404.00
2023-04-04T20:53:59.048Z,97407.00
2023-04-04T20:56:41.391Z,97398.00
2023-04-04T20:59:28.820Z,97398.00
2023-04-04T21:01:56.925Z,97408.00
2023-04-04T21:04:25.842Z,97403.00
2023-04-04T21:06:53.098Z,97411.00
2023-04-04T21:09:20.479Z,97399.00
2023-04-04T21:11:47.614Z,97402.00
2023-04-04T21:14:21.291Z,97398.00
2023-04-04T21:16:48.430Z,97396.00
2023-04-04T21:19:16.706Z,97394.00
2023-04-04T21:21:43.909Z,97392.00
2023-04-04T21:24:12.643Z,97403.00
2023-04-04T21:26:40.775Z,97401.00
2023-04-04T21:29:09.309Z,97394.00
2023-04-04T21:31:37.430Z,97395.00
2023-04-04T21:34:23.970Z,97404.00
2023-04-04T21:36:52.618Z,97402.00
2023-04-04T21:39:28.742Z,97404.00
2023-04-04T21:41:56.640Z,97399.00
2023-04-04T21:44:23.955Z,97403.00
2023-04-04T21:46:51.232Z,97412.00
2023-04-04T21:49:18.368Z,97409.00
2023-04-04T21:51:45.470Z,97409.00
2023-04-04T21:54:14.270Z,97408.00
2023-04-04T21:56:41.468Z,97413.00
2023-04-04T21:59:09.398Z,97414.00
2023-04-04T22:01:36.946Z,97409.00
2023-04-04T22:04:04.303Z,97401.00
2023-04-04T22:06:31.612Z,97410.00
2023-04-04T22:08:59.332Z,97411.00
2023-04-04T22:11:27.061Z,97407.00
2023-04-04T22:14:03.127Z,97409.00
2023-04-04T22:16:31.058Z,97411.00
2023-04-04T22:18:58.464Z,97406.00
2023-04-04T22:21:28.547Z,97417.00
2023-04-04T22:24:00.788Z,97411.00
2023-04-04T22:26:34.260Z,97419.00
2023-04-04T22:29:02.681Z,97404.00
2023-04-04T22:31:30.286Z,97412.00
2023-04-04T22:33:57.484Z,97408.00
2023-04-04T22:36:25.155Z,97403.00
2023-04-04T22:41:43.574Z,97400.00
2023-04-04T22:44:41.158Z,97395.00
2023-04-04T22:50:41.214Z,97399.00
2023-04-04T22:53:40.863Z,97394.00
2023-04-04T22:56:41.185Z,97380.00
2023-04-04T23:02:41.186Z,97383.00
2023-04-04T23:05:08.823Z,97382.00
2023-04-04T23:07:36.247Z,97392.00
2023-04-04T23:12:48.354Z,97380.00
2023-04-04T23:15:45.403Z,97389.00
2023-04-04T23:18:44.286Z,97385.00
2023-04-04T23:21:44.805Z,97378.00
2023-04-04T23:24:44.481Z,97385.00
2023-04-04T23:27:44.557Z,97377.00
2023-04-04T23:30:44.476Z,97381.00
2023-04-04T23:33:44.706Z,97378.00
2023-04-04T23:36:11.869Z,97377.00
2023-04-04T23:38:39.000Z,97369.00
2023-04-04T23:41:06.094Z,97366.00
2023-04-04T23:43:35.453Z,97371.00
2023-04-04T23:46:02.844Z,97375.00
2023-04-04T23:48:29.956Z,97370.00
2023-04-04T23:50:57.077Z,97374.00
2023-04-04T23:53:24.341Z,97376.00
2023-04-04T23:55:51.460Z,97372.00
2023-04-04T23:58:18.625Z,97371.00
